In Rescue
 
Open Full Screen Window  High Contrast Mode
Wind Gusting 00 knots
05
September 19, 2019 3:55 PM CDT
Weather Information
Wind Direction
  230 °
Wind Speed
  05 kt (6 mph)
Wind Gust
  00 kt (0 mph)
Altimeter
29.96 in
Visibility
10 SM
Temperature
27° C
81° F
Dewpoint
12° C
54° F
Humidity
39%
Sky Condition
Scattered @ 6,000 ft
VFR

METAR KDYT 192055Z AUTO 23005KT 10SM SCT060 27/12 A2996 RMK AO2

FAA Disclaimer: The data displayed is for advisory purposes only and is not to be used for flight planning or operations.